Time;durP1;ratioP1;P1;durP2;ratioP2;P2;SDS_P1;SDS_P2;PMS_P1;PMS_P2;Temp;Humidity;BMP_temperature;BMP_pressure;BME280_temperature;BME280_humidity;BME280_pressure;Samples;Min_cycle;Max_cycle;Signal;HPM_P1;HPM_P2
2023/01/13 00:00:56;;;;;;;2.53;1.20;;;;;;;9.94;100.00;100084.88;5073170;28;20048;-57
2023/01/13 00:03:23;;;;;;;2.60;1.20;;;;;;;9.90;100.00;100072.97;5073107;28;20549;-57
2023/01/13 00:05:50;;;;;;;3.28;1.40;;;;;;;9.89;100.00;100067.84;5073183;28;20037;-57
2023/01/13 00:08:17;;;;;;;2.05;1.10;;;;;;;9.83;100.00;100066.66;5073238;28;20124;-58
2023/01/13 00:10:47;;;;;;;3.08;1.20;;;;;;;9.83;100.00;100071.16;5077331;28;20066;-57
2023/01/13 00:13:14;;;;;;;3.67;1.15;;;;;;;9.77;100.00;100064.69;5077075;28;20075;-57
2023/01/13 00:15:41;;;;;;;2.47;1.10;;;;;;;9.79;100.00;100065.34;5077160;28;20048;-57
2023/01/13 00:18:07;;;;;;;2.35;1.20;;;;;;;9.80;100.00;100059.03;5067120;28;20041;-57
2023/01/13 00:20:34;;;;;;;1.60;1.25;;;;;;;9.79;100.00;100062.72;5076207;28;20048;-57
2023/01/13 00:23:00;;;;;;;2.92;1.20;;;;;;;9.78;100.00;100055.75;5074298;28;20552;-57
2023/01/13 00:25:27;;;;;;;5.03;1.55;;;;;;;9.79;100.00;100052.94;5076752;28;20056;-57
2023/01/13 00:27:54;;;;;;;5.50;1.75;;;;;;;9.73;100.00;100052.75;5076667;28;20049;-57
2023/01/13 00:30:20;;;;;;;2.90;1.30;;;;;;;9.77;100.00;100043.50;5076572;28;20045;-57
2023/01/13 00:32:47;;;;;;;4.22;1.40;;;;;;;9.79;100.00;100052.94;5076875;28;20059;-57
2023/01/13 00:35:14;;;;;;;2.17;1.25;;;;;;;9.77;100.00;100039.03;5076467;28;20053;-57
2023/01/13 00:37:41;;;;;;;4.10;1.20;;;;;;;9.79;100.00;100060.06;5076661;28;20075;-58
2023/01/13 00:40:08;;;;;;;2.92;1.35;;;;;;;9.80;100.00;100061.69;5076384;28;20102;-58
2023/01/13 00:45:21;;;;;;;4.25;1.30;;;;;;;9.76;100.00;100055.91;5076223;28;20048;-58
2023/01/13 00:47:48;;;;;;;4.38;1.45;;;;;;;9.72;100.00;100056.41;5075756;28;20498;-57
2023/01/13 00:50:15;;;;;;;5.47;1.40;;;;;;;9.73;98.46;100058.91;5076465;28;20041;-57
2023/01/13 00:52:41;;;;;;;4.25;1.40;;;;;;;9.70;97.94;100051.28;5076032;28;20098;-57
2023/01/13 00:55:08;;;;;;;5.20;1.48;;;;;;;9.69;97.76;100036.38;5076419;28;20048;-57
2023/01/13 00:57:35;;;;;;;8.50;1.77;;;;;;;9.71;97.02;100038.84;5075979;28;20448;-57
2023/01/13 01:00:03;;;;;;;3.83;1.23;;;;;;;9.61;97.61;100053.09;5076036;28;20041;-57
2023/01/13 01:02:30;;;;;;;5.20;1.40;;;;;;;9.67;96.86;100064.84;5076278;28;20045;-57
2023/01/13 01:04:58;;;;;;;6.25;1.95;;;;;;;9.72;97.20;100065.19;5075980;28;20052;-57
2023/01/13 01:07:25;;;;;;;5.13;1.42;;;;;;;9.71;96.03;100050.25;5075474;28;20048;-57
2023/01/13 01:09:53;;;;;;;5.60;1.50;;;;;;;9.59;97.07;100063.03;5075928;28;20068;-57
2023/01/13 01:12:19;;;;;;;4.60;1.45;;;;;;;9.64;96.99;100054.59;5076311;28;20044;-58
2023/01/13 01:14:46;;;;;;;7.18;1.48;;;;;;;9.66;96.05;100035.88;5076085;28;20440;-57
2023/01/13 01:17:13;;;;;;;5.47;1.23;;;;;;;9.65;94.46;100034.22;5075939;28;20056;-57
2023/01/13 01:19:41;;;;;;;5.53;1.40;;;;;;;9.67;93.74;100053.44;5075638;28;20498;-57
2023/01/13 01:22:07;;;;;;;12.35;1.60;;;;;;;9.63;94.31;100050.28;5075371;28;20055;-57
2023/01/13 01:24:34;;;;;;;5.38;1.50;;;;;;;9.59;92.18;100063.03;5076062;28;20048;-57
2023/01/13 01:27:00;;;;;;;4.97;1.23;;;;;;;9.58;92.46;100074.59;5075587;28;20485;-57
2023/01/13 01:29:27;;;;;;;10.63;2.17;;;;;;;9.53;91.63;100060.19;5075775;28;20043;-57
2023/01/13 01:31:57;;;;;;;6.47;1.50;;;;;;;9.59;91.51;100063.03;5075590;28;20045;-57
2023/01/13 01:34:24;;;;;;;7.13;1.30;;;;;;;9.60;91.56;100047.94;5075699;28;20048;-58
2023/01/13 01:36:50;;;;;;;5.65;1.92;;;;;;;9.54;90.30;100056.56;5075574;28;20094;-57
2023/01/13 01:39:17;;;;;;;7.43;1.38;;;;;;;9.54;91.16;100036.19;5075260;28;20132;-57
2023/01/13 01:43:57;;;;;;;9.60;1.70;;;;;;;9.49;91.03;100030.56;5075430;28;20080;-58
2023/01/13 01:44:55;;;;;;;12.75;1.63;;;;;;;9.48;90.80;100039.50;5074991;28;20510;-57
2023/01/13 01:47:23;;;;;;;8.40;1.63;;;;;;;9.44;89.02;100069.13;5074975;28;20059;-57
2023/01/13 01:49:50;;;;;;;9.88;1.92;;;;;;;9.52;86.18;100069.13;5075334;28;20114;-57
2023/01/13 01:52:28;;;;;;;8.05;1.63;;;;;;;9.45;84.29;100081.38;5075269;28;20055;-57
2023/01/13 01:55:02;;;;;;;10.07;1.65;;;;;;;9.41;82.33;100083.50;5075344;28;20045;-57
2023/01/13 01:57:38;;;;;;;7.65;1.75;;;;;;;9.46;81.11;100088.31;5075202;28;20449;-57
2023/01/13 02:00:05;;;;;;;7.57;1.38;;;;;;;9.41;81.41;100083.50;5075348;28;20041;-57
2023/01/13 02:02:43;;;;;;;9.85;1.80;;;;;;;9.38;83.72;100070.59;5074900;28;20044;-57
2023/01/13 02:05:10;;;;;;;10.52;1.40;;;;;;;9.36;83.07;100080.53;5074971;28;20390;-58
2023/01/13 02:07:39;;;;;;;11.32;1.65;;;;;;;9.23;80.17;100081.81;5073967;28;20049;-57
2023/01/13 02:10:10;;;;;;;6.50;1.30;;;;;;;9.20;79.46;100076.00;5075110;28;20390;-57
2023/01/13 02:12:39;;;;;;;8.10;1.33;;;;;;;9.11;78.96;100087.56;5074838;28;20131;-57
2023/01/13 02:15:13;;;;;;;10.60;1.30;;;;;;;9.08;78.40;100086.06;5074835;28;20322;-57
2023/01/13 02:18:05;;;;;;;3.80;1.30;;;;;;;9.07;79.95;100092.34;5055666;28;20412;-57
2023/01/13 02:21:02;;;;;;;5.95;1.40;;;;;;;8.93;78.94;100085.00;5053279;28;20037;-57
2023/01/13 02:36:19;;;;;;;6.97;1.65;;;;;;;8.72;78.02;100091.53;5110876;27;20362;-56
2023/01/13 02:44:41;;;;;;;7.28;1.40;;;;;;;8.48;77.16;100089.59;5111046;28;20143;-58
2023/01/13 02:47:15;;;;;;;11.10;1.60;;;;;;;8.44;78.91;100085.59;5111257;28;20047;-57
2023/01/13 02:49:48;;;;;;;10.88;2.35;;;;;;;8.37;80.90;100085.38;5111228;28;20051;-57
2023/01/13 02:52:24;;;;;;;9.10;1.42;;;;;;;8.43;78.65;100079.47;5110905;28;20047;-57
2023/01/13 02:54:56;;;;;;;7.50;1.50;;;;;;;8.38;77.06;100073.78;5110846;28;20455;-57
2023/01/13 02:57:25;;;;;;;10.82;1.60;;;;;;;8.44;79.19;100075.00;5111144;28;20048;-57
2023/01/13 02:59:54;;;;;;;12.13;1.63;;;;;;;8.35;78.88;100068.84;5110841;28;20408;-57
2023/01/13 03:02:23;;;;;;;10.38;1.77;;;;;;;8.33;78.52;100072.59;5111053;28;20052;-57
2023/01/13 03:04:58;;;;;;;15.23;1.98;;;;;;;8.26;79.84;100069.78;5110857;28;20048;-57
2023/01/13 03:10:46;;;;;;;13.50;1.60;;;;;;;8.16;81.09;100074.31;5110999;27;20395;-55
2023/01/13 03:16:27;;;;;;;11.27;1.63;;;;;;;8.11;81.22;100055.47;5111164;27;20378;-58
2023/01/13 03:19:09;;;;;;;11.73;1.80;;;;;;;8.10;81.75;100067.03;5111130;28;20546;-57
2023/01/13 03:24:35;;;;;;;12.05;2.30;;;;;;;8.14;81.34;100052.53;5070591;28;20715;-58
2023/01/13 03:27:16;;;;;;;9.07;1.65;;;;;;;8.07;81.66;100054.94;5070569;28;20044;-58
2023/01/13 03:29:51;;;;;;;10.18;2.10;;;;;;;8.07;83.04;100063.69;5070892;28;20044;-58
2023/01/13 03:32:36;;;;;;;11.65;1.90;;;;;;;8.06;81.69;100069.16;5070405;28;20048;-57
2023/01/13 03:35:17;;;;;;;12.73;1.92;;;;;;;7.98;82.53;100069.06;5070832;28;20485;-57
2023/01/13 03:37:51;;;;;;;10.40;1.92;;;;;;;7.93;82.58;100072.19;5070149;28;20553;-57
2023/01/13 03:40:25;;;;;;;11.35;2.35;;;;;;;7.99;81.92;100070.75;5070640;28;20052;-57
2023/01/13 03:45:51;;;;;;;18.48;2.00;;;;;;;7.81;82.79;100058.38;5050306;28;20049;-58
2023/01/13 03:48:21;;;;;;;15.00;2.15;;;;;;;7.82;83.13;100064.47;5050306;28;20053;-58
2023/01/13 03:50:52;;;;;;;15.95;2.10;;;;;;;7.92;82.13;100067.06;5050283;28;20080;-58
2023/01/13 03:53:27;;;;;;;10.27;1.77;;;;;;;7.85;83.49;100072.94;5050137;28;20055;-57
2023/01/13 03:56:06;;;;;;;10.93;1.67;;;;;;;7.86;82.50;100071.13;5050409;28;20482;-57
2023/01/13 03:58:37;;;;;;;15.68;2.15;;;;;;;7.72;83.21;100055.84;5050195;28;20045;-57
2023/01/13 04:01:13;;;;;;;20.20;2.80;;;;;;;7.66;84.15;100066.03;5050070;28;20075;-57
2023/01/13 04:03:56;;;;;;;15.05;2.08;;;;;;;7.65;83.83;100063.53;5049967;28;20041;-57
2023/01/13 04:06:29;;;;;;;;;;;;;;;7.71;84.39;100062.09;5050287;28;20056;-57
2023/01/13 04:09:05;;;;;;;15.93;2.17;;;;;;;7.67;84.16;100062.38;5049483;28;19920;-57
2023/01/13 04:11:43;;;;;;;9.93;1.58;;;;;;;7.74;83.31;100067.88;5050142;28;20041;-57
2023/01/13 04:14:12;;;;;;;12.05;1.85;;;;;;;7.70;82.96;100069.19;5057097;28;20045;-57
2023/01/13 04:16:41;;;;;;;18.88;3.03;;;;;;;7.69;83.66;100071.00;5070170;28;20099;-57
2023/01/13 04:19:08;;;;;;;15.82;2.20;;;;;;;7.65;84.72;100079.38;5056747;28;20041;-57
2023/01/13 04:21:34;;;;;;;15.07;2.13;;;;;;;7.51;84.65;100075.44;5048808;28;20041;-57
2023/01/13 04:24:01;;;;;;;16.65;2.55;;;;;;;7.58;84.19;100065.94;5049426;28;20082;-57
2023/01/13 04:26:28;;;;;;;16.92;2.08;;;;;;;7.49;84.22;100074.75;5049403;28;20053;-57
2023/01/13 04:28:54;;;;;;;13.40;1.70;;;;;;;7.53;85.73;100068.22;5048991;28;20380;-57
2023/01/13 04:31:21;;;;;;;16.83;2.40;;;;;;;7.47;85.98;100071.44;5049525;28;20045;-57
2023/01/13 04:33:48;;;;;;;14.70;2.67;;;;;;;7.42;86.39;100065.78;5046275;28;20072;-57
2023/01/13 04:36:15;;;;;;;12.10;2.13;;;;;;;7.52;85.20;100074.47;5035938;28;20098;-57
2023/01/13 04:38:41;;;;;;;17.17;2.30;;;;;;;7.46;85.40;100067.16;5036070;28;20077;-57
2023/01/13 04:41:08;;;;;;;26.33;2.42;;;;;;;7.57;85.64;100074.84;5035731;28;20050;-57
2023/01/13 04:43:35;;;;;;;11.82;1.75;;;;;;;7.42;85.55;100066.63;5038452;28;20372;-57
2023/01/13 04:46:01;;;;;;;16.17;2.25;;;;;;;7.49;85.14;100078.25;5055852;28;20087;-57
2023/01/13 04:48:28;;;;;;;17.90;2.92;;;;;;;7.51;85.55;100070.16;5055994;28;20491;-57
2023/01/13 04:50:55;;;;;;;13.88;2.00;;;;;;;7.56;85.43;100075.81;5055862;28;20103;-57
2023/01/13 04:53:21;;;;;;;16.20;2.15;;;;;;;7.53;85.24;100073.50;5055334;28;20564;-57
2023/01/13 04:55:48;;;;;;;15.15;2.28;;;;;;;7.62;84.93;100077.88;5055933;28;20095;-57
2023/01/13 04:58:15;;;;;;;15.85;2.40;;;;;;;7.66;86.77;100089.78;5055443;28;20557;-57
2023/01/13 05:00:42;;;;;;;20.27;3.05;;;;;;;7.72;87.70;100098.91;5055904;28;20053;-57
2023/01/13 05:03:08;;;;;;;19.15;2.30;;;;;;;7.74;86.48;100082.91;5054958;28;20414;-57
2023/01/13 05:05:35;;;;;;;15.90;1.90;;;;;;;7.65;87.82;100060.88;5056085;28;20051;-57
2023/01/13 05:08:03;;;;;;;20.27;2.72;;;;;;;7.78;86.44;100050.75;5054598;28;20041;-57
2023/01/13 05:10:29;;;;;;;15.50;2.47;;;;;;;7.73;88.61;100060.97;5056444;28;20075;-57
2023/01/13 05:18:32;;;;;;;20.30;2.83;;;;;;;7.75;87.85;100056.38;5055985;28;20052;-57
2023/01/13 05:20:59;;;;;;;26.33;2.80;;;;;;;7.71;86.45;100067.38;5055604;28;20057;-57
2023/01/13 05:26:13;;;;;;;16.83;2.25;;;;;;;7.72;86.35;100061.94;5054977;28;20161;-57
2023/01/13 05:28:40;;;;;;;19.48;2.58;;;;;;;7.78;85.45;100068.41;5055150;28;20091;-57
2023/01/13 05:31:06;;;;;;;23.35;2.70;;;;;;;7.77;85.82;100067.59;5055301;28;20049;-57
2023/01/13 05:33:34;;;;;;;23.10;2.88;;;;;;;7.88;84.48;100069.16;5054599;28;20041;-57
2023/01/13 05:36:02;;;;;;;16.25;2.30;;;;;;;7.85;84.51;100065.00;5055219;28;20045;-58
2023/01/13 05:38:29;;;;;;;22.98;2.35;;;;;;;7.76;85.89;100070.38;5054736;28;20407;-58
2023/01/13 05:43:45;;;;;;;20.00;2.63;;;;;;;7.73;86.21;100079.44;5054378;28;20405;-57
2023/01/13 05:46:11;;;;;;;28.23;3.72;;;;;;;7.83;85.54;100072.25;5053890;28;20053;-57
2023/01/13 05:48:41;;;;;;;24.35;2.92;;;;;;;7.85;84.43;100082.69;5054758;28;20528;-57
2023/01/13 05:51:10;;;;;;;23.45;2.65;;;;;;;7.84;83.91;100073.94;5054801;28;20057;-57
2023/01/13 05:53:39;;;;;;;25.50;3.33;;;;;;;7.82;85.18;100078.53;5054905;28;20055;-57
2023/01/13 05:56:07;;;;;;;17.45;2.85;;;;;;;7.82;83.68;100089.09;5054497;28;20047;-57
2023/01/13 05:58:34;;;;;;;15.13;2.40;;;;;;;7.66;84.79;100092.41;5054516;28;20052;-57
2023/01/13 06:01:03;;;;;;;18.55;2.38;;;;;;;7.60;85.66;100085.09;5053845;28;20486;-57
2023/01/13 06:03:30;;;;;;;15.77;2.53;;;;;;;7.57;84.98;100080.13;5054137;28;20037;-57
2023/01/13 06:06:00;;;;;;;15.57;2.50;;;;;;;7.56;86.13;100086.38;5054015;28;20048;-57
2023/01/13 06:08:27;;;;;;;13.18;2.15;;;;;;;7.60;86.39;100081.63;5053623;28;20083;-57
2023/01/13 06:10:54;;;;;;;22.00;2.70;;;;;;;7.63;84.20;100100.63;5054330;28;20053;-57
2023/01/13 06:13:21;;;;;;;16.15;2.28;;;;;;;7.67;84.25;100096.69;5053766;28;20055;-57
2023/01/13 06:15:47;;;;;;;16.40;1.85;;;;;;;7.62;83.80;100106.91;5054085;28;20070;-57
2023/01/13 06:18:14;;;;;;;16.95;2.40;;;;;;;7.67;84.38;100109.06;5053835;28;20406;-57
2023/01/13 06:20:41;;;;;;;18.98;2.17;;;;;;;7.61;84.09;100101.78;5044546;28;20102;-57
2023/01/13 06:23:10;;;;;;;17.50;2.13;;;;;;;7.67;84.70;100101.97;5051044;28;20053;-57
2023/01/13 06:25:48;;;;;;;12.93;2.30;;;;;;;7.69;83.25;100109.75;5052633;28;20068;-57
2023/01/13 06:28:14;;;;;;;14.55;2.05;;;;;;;7.72;83.04;100109.47;5053821;28;20170;-57
2023/01/13 06:30:46;;;;;;;16.17;2.15;;;;;;;7.68;84.32;100116.03;5053863;28;20049;-57
2023/01/13 06:33:16;;;;;;;13.93;2.75;;;;;;;7.64;83.88;100110.22;5053773;28;20395;-57
2023/01/13 06:35:50;;;;;;;15.52;2.10;;;;;;;7.55;83.71;100115.56;5053856;28;20069;-57
2023/01/13 06:38:19;;;;;;;18.58;2.35;;;;;;;7.60;83.80;100114.13;5053273;28;20041;-57
2023/01/13 06:40:46;;;;;;;9.57;2.10;;;;;;;7.64;83.59;100115.50;5053636;28;20041;-57
2023/01/13 06:43:13;;;;;;;14.43;2.10;;;;;;;7.62;83.61;100106.06;5052917;28;20044;-57
2023/01/13 06:45:48;;;;;;;16.70;2.40;;;;;;;7.59;84.50;100111.66;5033317;28;20052;-59
2023/01/13 06:48:15;;;;;;;16.65;2.28;;;;;;;7.59;84.90;100115.13;5033382;28;20057;-57
2023/01/13 06:50:42;;;;;;;12.55;2.08;;;;;;;7.57;85.17;100116.25;5033338;28;20568;-57
2023/01/13 06:53:09;;;;;;;18.42;2.38;;;;;;;7.50;86.08;100106.28;5032735;28;20474;-57
2023/01/13 06:55:36;;;;;;;13.48;2.05;;;;;;;7.58;85.34;100109.97;5033459;28;20046;-57
2023/01/13 06:58:02;;;;;;;14.15;2.03;;;;;;;7.52;84.89;100107.94;5032901;28;20045;-57
2023/01/13 07:00:31;;;;;;;11.32;2.53;;;;;;;7.54;86.09;100116.53;5032994;28;20049;-57
2023/01/13 07:03:15;;;;;;;15.25;2.38;;;;;;;7.48;86.32;100113.53;5032634;28;20052;-57
2023/01/13 07:05:51;;;;;;;11.25;2.60;;;;;;;7.40;86.23;100113.41;5032689;28;20045;-57
2023/01/13 07:08:19;;;;;;;11.93;1.88;;;;;;;7.48;84.34;100120.63;5045758;28;20494;-57
2023/01/13 07:10:45;;;;;;;20.85;2.30;;;;;;;7.49;83.65;100114.34;5053071;28;20069;-57
2023/01/13 07:16:02;;;;;;;14.88;2.38;;;;;;;7.58;82.47;100137.19;5052817;28;20116;-57
2023/01/13 07:18:31;;;;;;;17.88;2.40;;;;;;;7.55;82.10;100134.03;5052907;28;20044;-57
2023/01/13 07:21:00;;;;;;;17.02;3.33;;;;;;;7.42;82.27;100131.75;5052992;28;20041;-57
2023/01/13 07:23:29;;;;;;;13.95;2.17;;;;;;;7.44;83.55;100128.00;5052696;28;20055;-57
2023/01/13 07:25:57;;;;;;;13.00;2.42;;;;;;;7.49;81.85;100130.19;5052922;28;20049;-57
2023/01/13 07:28:24;;;;;;;13.13;2.20;;;;;;;7.42;81.32;100131.75;5053224;28;20572;-57
2023/01/13 07:30:52;;;;;;;14.05;2.15;;;;;;;7.43;81.38;100138.69;5053093;28;20048;-57
2023/01/13 07:33:19;;;;;;;14.85;2.10;;;;;;;7.45;81.13;100142.03;5052990;28;20091;-58
2023/01/13 07:35:47;;;;;;;9.15;1.95;;;;;;;7.32;82.38;100142.38;5052924;28;20045;-57
2023/01/13 07:38:14;;;;;;;9.88;1.98;;;;;;;7.38;81.56;100144.41;5052674;28;20487;-57
2023/01/13 07:40:41;;;;;;;10.70;1.60;;;;;;;7.34;82.58;100148.31;5052938;28;20048;-57
2023/01/13 07:43:42;;;;;;;18.95;2.47;;;;;;;7.35;81.81;100151.78;5052609;28;20052;-57
2023/01/13 07:46:00;;;;;;;14.23;1.88;;;;;;;7.34;82.85;100135.13;5052522;28;20447;-57
2023/01/13 07:48:27;;;;;;;11.98;2.58;;;;;;;7.33;81.81;100156.38;5052488;28;20053;-57
2023/01/13 07:50:54;;;;;;;12.82;1.80;;;;;;;7.34;82.71;100158.06;5052920;28;20052;-57
2023/01/13 07:53:23;;;;;;;14.40;2.10;;;;;;;7.36;82.65;100162.19;5052841;28;20459;-57
2023/01/13 07:55:55;;;;;;;13.20;2.72;;;;;;;7.39;82.47;100150.53;5052816;28;20440;-57
2023/01/13 07:58:24;;;;;;;16.35;3.03;;;;;;;7.43;82.17;100171.19;5052770;28;20064;-57
2023/01/13 08:00:51;;;;;;;16.40;3.05;;;;;;;7.38;82.38;100154.97;5052335;28;20628;-57
2023/01/13 08:03:18;;;;;;;12.07;1.88;;;;;;;7.33;83.04;100154.59;5052727;28;20045;-57
2023/01/13 08:05:46;;;;;;;14.68;2.25;;;;;;;7.35;82.79;100164.97;5052542;28;20102;-58
2023/01/13 08:08:13;;;;;;;13.48;2.10;;;;;;;7.37;82.57;100155.09;5051833;28;20128;-57
2023/01/13 08:10:40;;;;;;;13.35;2.28;;;;;;;7.30;83.15;100160.97;5055980;28;20057;-59
2023/01/13 08:13:18;;;;;;;14.48;2.85;;;;;;;7.61;86.82;100167.75;5045235;28;20342;-56
2023/01/13 08:15:48;;;;;;;18.52;2.95;;;;;;;7.86;85.05;100168.84;5046225;28;20444;-56
2023/01/13 08:18:19;;;;;;;17.33;2.03;;;;;;;7.91;81.41;100168.38;5002130;28;20052;-56
2023/01/13 08:20:47;;;;;;;12.13;2.08;;;;;;;7.86;81.23;100182.88;5017152;28;20582;-54
2023/01/13 08:23:14;;;;;;;13.82;2.65;;;;;;;7.89;81.82;100181.72;5007895;28;20099;-58
2023/01/13 08:25:41;;;;;;;16.13;2.42;;;;;;;7.85;82.06;100178.56;5030653;28;20128;-55
2023/01/13 08:28:08;;;;;;;33.13;11.48;;;;;;;7.82;83.00;100180.66;5010764;28;20046;-55
2023/01/13 08:30:35;;;;;;;10.45;2.00;;;;;;;7.66;82.14;100190.09;5024508;28;20398;-57
2023/01/13 08:33:06;;;;;;;16.77;2.58;;;;;;;7.67;82.81;100191.75;5021174;28;20077;-57
2023/01/13 08:35:35;;;;;;;13.98;2.15;;;;;;;7.60;82.37;100192.50;5046936;28;20403;-57
2023/01/13 08:38:03;;;;;;;16.40;2.30;;;;;;;7.58;84.19;100197.09;5027698;28;20048;-58
2023/01/13 08:40:30;;;;;;;14.52;1.73;;;;;;;7.61;83.06;100217.91;5047482;28;20053;-57
2023/01/13 08:42:58;;;;;;;12.88;2.30;;;;;;;7.65;83.28;100204.25;5033908;28;20955;-58
2023/01/13 08:45:25;;;;;;;12.23;2.00;;;;;;;7.70;83.41;100201.19;5039281;28;20386;-58
2023/01/13 08:47:51;;;;;;;17.48;2.92;;;;;;;7.63;83.15;100215.97;5031423;28;20529;-57
2023/01/13 08:50:19;;;;;;;17.23;2.55;;;;;;;7.68;84.34;100209.25;5038250;28;20045;-57
2023/01/13 08:52:45;;;;;;;11.73;2.10;;;;;;;7.73;82.44;100207.97;5029473;28;20045;-57
2023/01/13 08:55:12;;;;;;;22.27;2.45;;;;;;;7.69;82.56;100203.00;5035355;28;20067;-57
2023/01/13 08:57:39;;;;;;;22.42;3.25;;;;;;;7.76;82.65;100205.88;5029266;28;20098;-58
2023/01/13 09:00:07;;;;;;;20.20;2.92;;;;;;;7.74;82.59;100212.28;5024644;28;20107;-57
2023/01/13 09:02:34;;;;;;;17.38;2.70;;;;;;;7.76;83.41;100197.13;5036399;28;20060;-57
2023/01/13 09:05:02;;;;;;;19.83;2.65;;;;;;;7.75;82.52;100211.28;5028732;28;20044;-57
2023/01/13 09:07:30;;;;;;;32.50;3.20;;;;;;;7.80;82.54;100216.97;5043938;28;20048;-57
2023/01/13 09:09:57;;;;;;;30.73;3.70;;;;;;;7.75;81.85;100221.84;5027746;28;20046;-57
2023/01/13 09:13:10;;;;;;;29.88;4.50;;;;;;;7.86;82.42;100211.09;5049502;28;20103;-57
2023/01/13 09:15:11;;;;;;;24.67;2.80;;;;;;;7.88;81.32;100217.06;5039846;28;20037;-57
2023/01/13 09:17:38;;;;;;;26.02;3.10;;;;;;;7.90;82.60;100220.38;5028261;28;20037;-57
2023/01/13 09:20:05;;;;;;;14.27;2.63;;;;;;;7.97;80.77;100217.97;5032590;28;20045;-57
2023/01/13 09:22:34;;;;;;;20.00;3.00;;;;;;;7.99;80.57;100221.31;5048917;28;20122;-57
2023/01/13 09:25:01;;;;;;;17.88;2.90;;;;;;;8.12;80.45;100219.09;5024228;28;20051;-58
2023/01/13 09:27:28;;;;;;;23.10;2.55;;;;;;;8.12;80.36;100228.84;5034185;28;20097;-57
2023/01/13 09:29:54;;;;;;;19.77;3.58;;;;;;;8.09;79.70;100232.59;5028907;28;20037;-59
2023/01/13 09:32:21;;;;;;;33.10;3.67;;;;;;;8.09;80.23;100219.41;5046164;28;20056;-59
2023/01/13 09:35:03;;;;;;;19.33;2.95;;;;;;;8.14;79.88;100224.25;5025359;28;20041;-60
2023/01/13 09:37:32;;;;;;;;;;;;;;;8.18;80.35;100221.13;5047660;28;20029;-60
2023/01/13 09:40:00;;;;;;;20.52;3.22;;;;;;;8.18;79.07;100231.69;5025763;28;19921;-60
2023/01/13 09:45:35;;;;;;;17.42;2.55;;;;;;;8.19;79.35;100235.19;5018263;28;20048;-62
2023/01/13 09:48:11;;;;;;;22.98;3.35;;;;;;;8.22;78.81;100227.81;5040151;28;20033;-61
2023/01/13 09:51:02;;;;;;;24.77;3.10;;;;;;;8.32;78.97;100237.47;5021861;28;20712;-61
2023/01/13 09:53:36;;;;;;;24.83;3.15;;;;;;;8.20;79.11;100242.94;5033062;28;20072;-63
2023/01/13 09:56:04;;;;;;;25.52;3.22;;;;;;;8.22;78.92;100246.31;5024026;28;20507;-61
2023/01/13 09:58:31;;;;;;;27.48;3.00;;;;;;;8.18;78.78;100260.78;5031714;28;20102;-62
2023/01/13 10:04:02;;;;;;;24.85;3.08;;;;;;;8.36;79.05;100258.13;5044221;28;22641;-61
2023/01/13 10:06:35;;;;;;;23.52;2.38;;;;;;;8.28;78.04;100255.44;5053849;28;20049;-60
2023/01/13 10:09:02;;;;;;;29.92;4.68;;;;;;;8.48;77.97;100268.50;5050062;28;20075;-60
2023/01/13 10:14:30;;;;;;;23.02;3.63;;;;;;;8.51;78.61;100252.34;5032787;28;20048;-60
2023/01/13 10:17:37;;;;;;;19.92;3.35;;;;;;;8.42;77.75;100254.09;5035441;28;20490;-61
2023/01/13 10:20:33;;;;;;;27.20;4.22;;;;;;;8.31;76.59;100262.22;5041068;28;20171;-61
2023/01/13 10:23:18;;;;;;;26.25;3.47;;;;;;;8.27;77.50;100265.16;5049913;28;20033;-61
2023/01/13 10:25:59;;;;;;;31.40;4.57;;;;;;;8.25;78.16;100261.84;5041671;28;20069;-61
2023/01/13 10:28:26;;;;;;;21.50;3.17;;;;;;;8.37;77.60;100259.81;5046429;28;20612;-61
2023/01/13 10:30:53;;;;;;;29.15;3.80;;;;;;;8.37;77.69;100251.88;5042704;28;20049;-61
2023/01/13 10:33:27;;;;;;;25.52;3.72;;;;;;;8.37;77.20;100249.25;5060310;28;20045;-59
2023/01/13 10:36:00;;;;;;;24.55;3.00;;;;;;;8.38;77.13;100256.16;5043843;28;20186;-62
2023/01/13 10:38:39;;;;;;;21.85;3.35;;;;;;;8.36;76.96;100252.03;5051144;28;20041;-61
2023/01/13 10:44:02;;;;;;;26.75;3.22;;;;;;;8.45;75.87;100262.53;5067549;27;20380;-61
2023/01/13 10:46:33;;;;;;;22.45;3.55;;;;;;;8.51;76.10;100247.88;5088831;28;20098;-59
2023/01/13 10:49:03;;;;;;;24.02;4.43;;;;;;;8.59;76.07;100249.78;5081706;28;20052;-60
2023/01/13 10:51:42;;;;;;;24.35;3.60;;;;;;;8.57;76.09;100271.09;5082470;28;20041;-60
2023/01/13 10:54:22;;;;;;;22.50;3.17;;;;;;;8.56;76.08;100269.41;5069108;28;20847;-61
2023/01/13 10:59:51;;;;;;;22.83;3.10;;;;;;;8.98;75.12;100276.66;5031386;28;20359;-60
2023/01/13 11:02:25;;;;;;;24.00;3.42;;;;;;;9.14;75.00;100277.78;5036594;28;20506;-59
2023/01/13 11:05:01;;;;;;;16.73;3.30;;;;;;;8.99;74.28;100283.63;5023771;28;20064;-61
2023/01/13 11:07:34;;;;;;;25.75;3.45;;;;;;;9.15;72.93;100290.00;5039538;28;20167;-59
2023/01/13 11:12:55;;;;;;;23.83;3.38;;;;;;;9.14;74.30;100283.06;5091874;27;20395;-61
2023/01/13 11:15:36;;;;;;;20.80;2.92;;;;;;;9.01;74.45;100283.47;5061995;28;20049;-61
2023/01/13 11:18:13;;;;;;;29.20;2.92;;;;;;;8.87;74.10;100279.56;5079253;28;20054;-61
2023/01/13 11:20:44;;;;;;;24.52;3.13;;;;;;;8.80;75.03;100282.03;5056383;28;20204;-61
2023/01/13 11:23:26;;;;;;;30.35;4.90;;;;;;;8.79;74.88;100284.81;5070721;28;20045;-61
2023/01/13 11:26:02;;;;;;;28.40;3.60;;;;;;;8.76;74.93;100275.34;5064231;28;20121;-61
2023/01/13 11:28:43;;;;;;;87.25;43.10;;;;;;;8.75;74.58;100280.78;5090182;28;20093;-59
2023/01/13 11:31:30;;;;;;;24.80;3.50;;;;;;;8.87;73.89;100271.63;5059345;28;20074;-60
2023/01/13 11:34:06;;;;;;;20.02;2.97;;;;;;;8.81;74.02;100285.47;5085773;28;20408;-61
2023/01/13 11:36:41;;;;;;;20.13;2.70;;;;;;;8.72;73.82;100297.00;5064547;28;20084;-62
2023/01/13 11:39:22;;;;;;;19.35;2.95;;;;;;;8.70;74.37;100291.84;5082291;28;20045;-60
2023/01/13 11:42:31;;;;;;;18.92;3.10;;;;;;;8.70;74.21;100299.78;5063463;28;20070;-61
2023/01/13 11:45:02;;;;;;;31.67;3.58;;;;;;;8.57;75.60;100296.69;5093685;28;20040;-61
2023/01/13 11:47:31;;;;;;;19.77;2.88;;;;;;;8.55;75.71;100314.50;5061384;28;20045;-62
2023/01/13 11:49:58;;;;;;;27.65;3.38;;;;;;;8.55;75.90;100291.56;5079439;28;20039;-60
2023/01/13 11:53:05;;;;;;;29.17;3.05;;;;;;;8.62;76.05;100304.97;5068045;28;20739;-61
2023/01/13 11:55:48;;;;;;;21.70;3.47;;;;;;;8.73;74.77;100288.91;5053751;28;20052;-61
2023/01/13 12:01:26;;;;;;;24.30;2.92;;;;;;;8.70;74.92;100294.50;5086186;27;20392;-61
2023/01/13 12:04:28;;;;;;;18.13;2.78;;;;;;;8.65;75.86;100284.34;5098123;28;20047;-62
2023/01/13 12:07:20;;;;;;;26.60;3.55;;;;;;;8.66;74.58;100293.13;5083125;28;20047;-61
2023/01/13 12:10:16;;;;;;;13.05;2.30;;;;;;;8.64;74.26;100297.72;5111935;28;20482;-61
2023/01/13 12:12:59;;;;;;;21.40;3.25;;;;;;;8.63;73.90;100299.53;5092192;28;20490;-61
2023/01/13 12:15:44;;;;;;;20.25;3.70;;;;;;;8.63;74.96;100304.00;5094514;28;20048;-61
2023/01/13 12:18:46;;;;;;;19.05;3.17;;;;;;;8.58;74.32;100291.22;5098292;28;20573;-61
2023/01/13 12:21:32;;;;;;;22.60;3.33;;;;;;;8.67;74.42;100294.78;5089990;28;20089;-60
2023/01/13 12:24:26;;;;;;;23.80;3.78;;;;;;;8.65;75.29;100304.69;5098471;28;20044;-61
2023/01/13 12:26:59;;;;;;;19.77;3.10;;;;;;;8.43;80.56;100305.97;5080018;28;20162;-60
2023/01/13 12:29:32;;;;;;;20.15;2.90;;;;;;;8.17;83.23;100308.50;5091562;28;20035;-61
2023/01/13 12:32:03;;;;;;;25.83;3.33;;;;;;;8.16;85.22;100305.00;5084868;28;20420;-61
2023/01/13 12:34:42;;;;;;;23.17;3.47;;;;;;;8.01;85.49;100332.94;5101724;28;20040;-61
2023/01/13 12:37:35;;;;;;;24.20;2.80;;;;;;;7.91;88.14;100350.63;5088373;28;20048;-61
2023/01/13 12:40:20;;;;;;;25.58;3.45;;;;;;;7.70;89.27;100349.03;5079337;28;20393;-61
2023/01/13 12:45:48;;;;;;;18.67;2.65;;;;;;;7.44;91.69;100370.81;5105348;28;20040;-61
2023/01/13 12:48:54;;;;;;;22.23;2.90;;;;;;;7.35;95.34;100360.25;5101098;28;20674;-61
2023/01/13 12:51:24;;;;;;;15.85;2.75;;;;;;;7.41;97.13;100351.78;5099921;28;20040;-60
2023/01/13 12:53:53;;;;;;;50.22;15.10;;;;;;;7.44;94.26;100365.53;5100761;28;20037;-62
2023/01/13 12:56:41;;;;;;;20.48;3.20;;;;;;;7.39;95.73;100375.66;5089577;28;20052;-61
2023/01/13 13:04:51;;;;;;;12.90;2.45;;;;;;;7.21;95.49;100367.66;5055093;28;20883;-60